createdAt,value
2023-01-10T00:02:23.604Z,5.77
2023-01-10T00:04:51.381Z,6.10
2023-01-10T00:07:19.298Z,7.67
2023-01-10T00:09:48.509Z,8.17
2023-01-10T00:12:33.989Z,8.80
2023-01-10T00:15:01.751Z,8.87
2023-01-10T00:17:29.923Z,7.47
2023-01-10T00:19:57.662Z,5.07
2023-01-10T00:22:26.823Z,5.20
2023-01-10T00:24:56.155Z,6.20
2023-01-10T00:27:24.491Z,7.07
2023-01-10T00:29:53.890Z,9.60
2023-01-10T00:32:22.108Z,5.43
2023-01-10T00:34:49.985Z,6.80
2023-01-10T00:37:17.756Z,4.53
2023-01-10T00:39:45.890Z,7.47
2023-01-10T00:42:32.829Z,8.00
2023-01-10T00:45:00.965Z,4.87
2023-01-10T00:47:28.695Z,5.83
2023-01-10T00:49:56.823Z,7.50
2023-01-10T00:52:24.686Z,5.63
2023-01-10T00:54:53.030Z,5.63
2023-01-10T00:57:22.558Z,6.30
2023-01-10T00:59:50.690Z,4.63
2023-01-10T01:02:18.801Z,5.00
2023-01-10T01:04:47.175Z,8.10
2023-01-10T01:07:14.908Z,6.07
2023-01-10T01:09:57.129Z,6.47
2023-01-10T01:12:26.205Z,5.63
2023-01-10T01:14:54.388Z,6.80
2023-01-10T01:17:22.131Z,7.27
2023-01-10T01:19:50.109Z,7.00
2023-01-10T01:22:18.030Z,7.63
2023-01-10T01:24:45.977Z,6.67
2023-01-10T01:27:13.943Z,6.00
2023-01-10T01:29:43.816Z,8.50
2023-01-10T01:32:12.547Z,6.03
2023-01-10T01:34:41.084Z,5.80
2023-01-10T01:37:08.907Z,7.00
2023-01-10T01:39:36.636Z,5.47
2023-01-10T01:42:05.642Z,6.23
2023-01-10T01:44:34.284Z,6.43
2023-01-10T01:47:05.293Z,7.20
2023-01-10T01:49:33.302Z,6.10
2023-01-10T01:52:04.082Z,7.23
2023-01-10T01:54:31.994Z,6.10
2023-01-10T01:57:01.785Z,9.43
2023-01-10T01:59:31.206Z,10.13
2023-01-10T02:02:00.903Z,8.13
2023-01-10T02:04:31.411Z,5.70
2023-01-10T02:06:59.341Z,8.70
2023-01-10T02:09:29.849Z,8.20
2023-01-10T02:11:57.764Z,7.13
2023-01-10T02:14:25.812Z,5.23
2023-01-10T02:16:53.743Z,6.53
2023-01-10T02:19:26.368Z,8.27
2023-01-10T02:22:35.774Z,5.97
2023-01-10T02:25:30.716Z,6.73
2023-01-10T02:28:10.009Z,7.53
2023-01-10T02:30:52.289Z,5.23
2023-01-10T02:33:23.340Z,6.50
2023-01-10T02:35:59.117Z,5.43
2023-01-10T02:38:33.913Z,7.00
2023-01-10T02:41:04.966Z,8.97
2023-01-10T02:43:34.482Z,4.97
2023-01-10T02:46:05.166Z,8.60
2023-01-10T02:48:34.615Z,7.17
2023-01-10T02:51:03.734Z,8.13
2023-01-10T02:53:33.950Z,9.43
2023-01-10T02:56:32.372Z,9.03
2023-01-10T02:59:22.065Z,6.87
2023-01-10T03:01:56.407Z,5.87
2023-01-10T03:04:29.234Z,6.20
2023-01-10T03:07:00.166Z,5.30
2023-01-10T03:09:34.255Z,5.93
2023-01-10T03:12:13.867Z,5.70
2023-01-10T03:14:42.132Z,15.13
2023-01-10T03:17:11.404Z,11.40
2023-01-10T03:19:42.792Z,11.10
2023-01-10T03:22:10.618Z,14.10
2023-01-10T03:24:41.913Z,10.87
2023-01-10T03:27:11.907Z,12.27
2023-01-10T03:29:43.124Z,9.30
2023-01-10T03:32:12.424Z,13.17
2023-01-10T03:34:41.798Z,9.30
2023-01-10T03:37:12.535Z,12.70
2023-01-10T03:39:44.066Z,10.63
2023-01-10T03:42:14.571Z,9.67
2023-01-10T03:44:45.611Z,9.80
2023-01-10T03:47:17.501Z,9.00
2023-01-10T03:49:48.257Z,11.47
2023-01-10T03:52:18.475Z,8.53
2023-01-10T03:54:46.420Z,8.10
2023-01-10T03:57:19.215Z,10.23
2023-01-10T03:59:47.206Z,6.83
2023-01-10T04:02:15.504Z,8.93
2023-01-10T04:04:43.402Z,13.43
2023-01-10T04:07:12.646Z,8.00
2023-01-10T04:09:40.896Z,7.83
2023-01-10T04:12:08.776Z,9.33
2023-01-10T04:14:36.755Z,10.87
2023-01-10T04:17:04.569Z,10.03
2023-01-10T04:19:32.801Z,9.80
2023-01-10T04:22:00.503Z,6.90
2023-01-10T04:24:29.531Z,10.87
2023-01-10T04:26:57.206Z,9.13
2023-01-10T04:29:25.375Z,6.73
2023-01-10T04:31:53.063Z,8.93
2023-01-10T04:34:22.131Z,7.93
2023-01-10T04:36:50.733Z,9.87
2023-01-10T04:39:18.463Z,6.83
2023-01-10T04:41:48.211Z,8.10
2023-01-10T04:44:16.023Z,8.20
2023-01-10T04:46:43.910Z,8.30
2023-01-10T04:49:11.783Z,7.57
2023-01-10T04:51:39.976Z,10.83
2023-01-10T04:54:07.647Z,7.27
2023-01-10T04:56:35.345Z,7.77
2023-01-10T04:59:06.489Z,12.43
2023-01-10T05:01:35.458Z,6.03
2023-01-10T05:04:03.875Z,10.37
2023-01-10T05:06:32.094Z,9.90
2023-01-10T05:08:59.833Z,6.90
2023-01-10T05:11:27.745Z,9.20
2023-01-10T05:13:55.647Z,6.47
2023-01-10T05:16:25.445Z,7.47
2023-01-10T05:18:53.890Z,8.90
2023-01-10T05:21:21.797Z,7.47
2023-01-10T05:23:50.211Z,7.00
2023-01-10T05:26:19.048Z,9.00
2023-01-10T05:28:47.411Z,7.63
2023-01-10T05:31:16.580Z,7.50
2023-01-10T05:33:47.200Z,7.47
2023-01-10T05:36:15.047Z,6.30
2023-01-10T05:38:42.928Z,7.60
2023-01-10T05:41:11.186Z,5.90
2023-01-10T05:43:39.120Z,9.73
2023-01-10T05:46:07.543Z,9.07
2023-01-10T05:48:35.441Z,10.50
2023-01-10T05:51:05.102Z,8.00
2023-01-10T05:53:32.990Z,8.80
2023-01-10T05:56:02.237Z,5.50
2023-01-10T05:58:30.275Z,10.23
2023-01-10T06:00:59.100Z,7.10
2023-01-10T06:03:27.318Z,10.27
2023-01-10T06:05:55.517Z,5.20
2023-01-10T06:08:24.993Z,5.93
2023-01-10T06:10:54.497Z,5.33
2023-01-10T06:13:22.376Z,6.17
2023-01-10T06:15:50.444Z,6.67
2023-01-10T06:18:18.226Z,6.93
2023-01-10T06:20:45.971Z,6.07
2023-01-10T06:23:13.744Z,6.20
2023-01-10T06:25:42.779Z,6.00
2023-01-10T06:28:11.437Z,4.70
2023-01-10T06:30:39.131Z,4.03
2023-01-10T06:33:07.512Z,7.70
2023-01-10T06:35:35.869Z,7.40
2023-01-10T06:38:03.600Z,7.10
2023-01-10T06:40:31.361Z,10.93
2023-01-10T06:43:00.541Z,6.00
2023-01-10T06:45:28.331Z,7.30
2023-01-10T06:47:56.748Z,12.60
2023-01-10T06:50:25.039Z,5.60
2023-01-10T06:52:59.226Z,7.70
2023-01-10T06:55:27.268Z,6.30
2023-01-10T06:57:58.460Z,5.60
2023-01-10T07:00:28.844Z,7.20
2023-01-10T07:02:57.365Z,6.80
2023-01-10T07:05:25.281Z,6.13
2023-01-10T07:07:53.200Z,5.57
2023-01-10T07:10:21.036Z,7.80
2023-01-10T07:12:49.387Z,5.87
2023-01-10T07:15:17.431Z,6.10
2023-01-10T07:17:46.716Z,6.23
2023-01-10T07:20:14.793Z,6.90
2023-01-10T07:22:42.710Z,7.77
2023-01-10T07:25:10.898Z,7.63
2023-01-10T07:27:43.732Z,11.83
2023-01-10T07:30:12.606Z,8.87
2023-01-10T07:32:40.713Z,9.77
2023-01-10T07:35:10.502Z,5.17
2023-01-10T07:37:38.220Z,9.00
2023-01-10T07:40:06.994Z,8.37
2023-01-10T07:42:34.682Z,6.97
2023-01-10T07:45:02.686Z,7.03
2023-01-10T07:47:30.817Z,5.17
2023-01-10T07:49:59.170Z,10.63
2023-01-10T07:52:28.591Z,10.10
2023-01-10T07:54:56.793Z,7.50
2023-01-10T07:57:24.730Z,7.20
2023-01-10T07:59:53.054Z,5.80
2023-01-10T08:02:20.999Z,7.23
2023-01-10T08:04:49.484Z,9.50
2023-01-10T08:07:17.406Z,7.80
2023-01-10T08:09:46.792Z,8.10
2023-01-10T08:12:15.054Z,7.53
2023-01-10T08:14:43.319Z,6.27
2023-01-10T08:17:11.749Z,6.40
2023-01-10T08:19:39.610Z,6.80
2023-01-10T08:22:07.752Z,8.40
2023-01-10T08:24:35.460Z,7.30
2023-01-10T08:27:04.866Z,8.83
2023-01-10T08:29:33.138Z,6.60
2023-01-10T08:32:00.978Z,7.60
2023-01-10T08:34:29.268Z,7.87
2023-01-10T08:36:57.272Z,6.90
2023-01-10T08:39:27.136Z,10.40
2023-01-10T08:41:54.977Z,8.00
2023-01-10T08:44:24.607Z,6.87
2023-01-10T08:46:52.405Z,8.70
2023-01-10T08:49:20.633Z,8.43
2023-01-10T08:51:48.372Z,5.93
2023-01-10T08:54:16.750Z,7.27
2023-01-10T08:56:44.742Z,8.23
2023-01-10T08:59:12.843Z,11.17
2023-01-10T09:01:41.968Z,9.00
2023-01-10T09:04:10.281Z,7.80
2023-01-10T09:06:37.995Z,8.80
2023-01-10T09:09:06.494Z,9.63
2023-01-10T09:11:34.439Z,8.90
2023-01-10T09:14:02.612Z,10.03
2023-01-10T09:16:30.289Z,7.73
2023-01-10T09:18:59.353Z,7.03
2023-01-10T09:21:28.125Z,6.27
2023-01-10T09:23:55.820Z,6.17
2023-01-10T09:26:24.047Z,10.67
2023-01-10T09:28:51.722Z,9.60
2023-01-10T09:31:19.481Z,8.50
2023-01-10T09:33:49.679Z,11.53
2023-01-10T09:36:18.713Z,8.60
2023-01-10T09:38:46.632Z,6.47
2023-01-10T09:41:44.121Z,6.33
2023-01-10T09:44:17.538Z,8.90
2023-01-10T09:46:50.126Z,5.07
2023-01-10T09:49:23.018Z,8.97
2023-01-10T09:51:53.367Z,5.97
2023-01-10T09:54:24.809Z,6.50
2023-01-10T09:56:53.221Z,9.77
2023-01-10T09:59:22.356Z,9.17
2023-01-10T10:01:50.719Z,9.80
2023-01-10T10:04:22.989Z,7.20
2023-01-10T10:06:52.267Z,6.90
2023-01-10T10:09:23.330Z,8.30
2023-01-10T10:11:57.849Z,7.17
2023-01-10T10:14:33.304Z,7.80
2023-01-10T10:17:10.456Z,5.67
2023-01-10T10:19:46.098Z,10.13
2023-01-10T10:22:19.842Z,9.30
2023-01-10T10:24:54.406Z,9.20
2023-01-10T10:27:23.577Z,6.40
2023-01-10T10:30:33.594Z,9.23
2023-01-10T10:33:07.953Z,14.67
2023-01-10T10:35:37.464Z,6.33
2023-01-10T10:38:10.057Z,10.50
2023-01-10T10:40:40.405Z,11.67
2023-01-10T10:43:14.921Z,8.60
2023-01-10T10:45:44.208Z,10.47
2023-01-10T10:48:14.447Z,7.63
2023-01-10T10:50:46.635Z,8.73
2023-01-10T10:53:16.237Z,9.47
2023-01-10T10:55:44.576Z,9.30
2023-01-10T10:58:12.322Z,8.10
2023-01-10T11:00:40.700Z,14.37
2023-01-10T11:03:17.624Z,10.20
2023-01-10T11:05:47.103Z,10.00
2023-01-10T11:08:16.804Z,7.50
2023-01-10T11:10:47.701Z,9.30
2023-01-10T11:13:18.767Z,6.57
2023-01-10T11:15:47.789Z,9.63
2023-01-10T11:18:16.619Z,10.43
2023-01-10T11:20:52.915Z,6.93
2023-01-10T11:23:27.308Z,11.77
2023-01-10T11:25:55.562Z,10.27
2023-01-10T11:28:24.509Z,10.27
2023-01-10T11:30:52.640Z,8.50
2023-01-10T11:33:22.892Z,9.60
2023-01-10T11:35:58.072Z,8.60
2023-01-10T11:38:30.798Z,9.73
2023-01-10T11:40:59.927Z,7.60
2023-01-10T11:43:34.153Z,14.17
2023-01-10T11:46:03.319Z,10.50
2023-01-10T11:49:05.100Z,10.00
2023-01-10T11:51:34.701Z,9.27
2023-01-10T11:54:05.062Z,11.10
2023-01-10T11:56:33.745Z,7.43
2023-01-10T11:59:09.377Z,6.83
2023-01-10T12:01:40.593Z,9.50
2023-01-10T12:04:08.737Z,7.10
2023-01-10T12:06:36.395Z,7.20
2023-01-10T12:09:05.522Z,9.07
2023-01-10T12:11:35.910Z,8.00
2023-01-10T12:14:04.203Z,12.83
2023-01-10T12:16:32.833Z,11.90
2023-01-10T12:19:01.596Z,14.57
2023-01-10T12:21:32.817Z,9.80
2023-01-10T12:24:02.755Z,8.80
2023-01-10T12:26:32.980Z,9.30
2023-01-10T12:29:03.926Z,9.70
2023-01-10T12:31:32.058Z,7.40
2023-01-10T12:34:02.256Z,13.93
2023-01-10T12:36:36.000Z,9.40
2023-01-10T12:39:11.301Z,7.60
2023-01-10T12:42:03.971Z,9.70
2023-01-10T12:44:34.331Z,7.70
2023-01-10T12:47:09.121Z,10.07
2023-01-10T12:49:40.678Z,10.93
2023-01-10T12:52:13.439Z,12.30
2023-01-10T12:54:41.128Z,12.63
2023-01-10T12:57:23.375Z,12.57
2023-01-10T12:59:51.744Z,10.23
2023-01-10T13:02:20.595Z,11.80
2023-01-10T13:04:50.002Z,10.20
2023-01-10T13:07:18.176Z,9.63
2023-01-10T13:09:46.019Z,12.97
2023-01-10T13:12:20.598Z,13.47
2023-01-10T13:14:51.413Z,9.73
2023-01-10T13:17:30.315Z,11.53
2023-01-10T13:20:50.363Z,8.60
2023-01-10T13:23:27.159Z,10.57
2023-01-10T13:25:56.277Z,11.83
2023-01-10T13:28:26.931Z,8.87
2023-01-10T13:30:55.289Z,11.23
2023-01-10T13:33:24.633Z,7.90
2023-01-10T13:35:52.714Z,10.93
2023-01-10T13:38:21.717Z,9.33
2023-01-10T13:41:00.602Z,9.70
2023-01-10T13:43:37.827Z,6.93
2023-01-10T13:46:35.080Z,10.50
2023-01-10T13:49:25.793Z,10.80
2023-01-10T13:52:39.785Z,14.03
2023-01-10T13:55:34.957Z,10.17
2023-01-10T13:58:04.419Z,5.37
2023-01-10T14:01:07.723Z,10.67
2023-01-10T14:03:44.218Z,11.83
2023-01-10T14:06:21.276Z,12.27
2023-01-10T14:08:51.502Z,8.47
2023-01-10T14:11:19.286Z,14.03
2023-01-10T14:13:48.400Z,8.90
2023-01-10T14:16:30.261Z,15.33
2023-01-10T14:18:57.947Z,11.90
2023-01-10T14:21:26.737Z,13.93
2023-01-10T14:23:54.927Z,12.00
2023-01-10T14:26:31.427Z,9.23
2023-01-10T14:29:00.811Z,8.47
2023-01-10T14:31:32.252Z,6.57
2023-01-10T14:34:00.317Z,13.10
2023-01-10T14:36:29.680Z,11.50
2023-01-10T14:38:59.199Z,6.53
2023-01-10T14:41:32.666Z,12.07
2023-01-10T14:44:01.952Z,9.80
2023-01-10T14:46:35.322Z,14.80
2023-01-10T14:49:03.334Z,15.43
2023-01-10T14:51:32.468Z,15.63
2023-01-10T14:54:01.460Z,8.47
2023-01-10T14:56:30.276Z,15.80
2023-01-10T14:58:58.188Z,13.80
2023-01-10T15:01:27.776Z,11.50
2023-01-10T15:03:58.646Z,10.67
2023-01-10T15:06:26.454Z,10.53
2023-01-10T15:08:58.537Z,11.30
2023-01-10T15:11:29.527Z,15.90
2023-01-10T15:14:00.045Z,15.63
2023-01-10T15:16:28.980Z,8.67
2023-01-10T15:18:58.315Z,10.80
2023-01-10T15:21:27.559Z,9.40
2023-01-10T15:23:55.230Z,12.50
2023-01-10T15:26:28.026Z,14.60
2023-01-10T15:29:06.609Z,14.20
2023-01-10T15:31:36.840Z,16.47
2023-01-10T15:34:09.757Z,10.10
2023-01-10T15:36:38.424Z,9.37
2023-01-10T15:39:06.194Z,15.10
2023-01-10T15:41:34.466Z,12.90
2023-01-10T15:44:23.656Z,9.57
2023-01-10T15:46:58.424Z,13.70
2023-01-10T15:49:28.341Z,13.60
2023-01-10T15:51:57.569Z,15.97
2023-01-10T15:54:32.968Z,17.17
2023-01-10T15:57:06.710Z,10.10
2023-01-10T15:59:37.297Z,22.33
2023-01-10T16:02:17.158Z,12.30
2023-01-10T16:04:46.555Z,10.03
2023-01-10T16:07:18.788Z,12.87
2023-01-10T16:09:50.876Z,13.60
2023-01-10T16:12:44.554Z,14.60
2023-01-10T16:15:17.268Z,19.97
2023-01-10T16:17:45.229Z,19.50
2023-01-10T16:20:15.573Z,15.93
2023-01-10T16:22:44.289Z,13.23
2023-01-10T16:25:16.619Z,11.33
2023-01-10T16:27:44.581Z,11.63
2023-01-10T16:30:25.573Z,13.53
2023-01-10T16:32:53.979Z,17.37
2023-01-10T16:35:23.497Z,15.10
2023-01-10T16:37:52.830Z,12.90
2023-01-10T16:40:22.500Z,14.13
2023-01-10T16:43:07.864Z,15.23
2023-01-10T16:45:36.289Z,14.37
2023-01-10T16:48:04.236Z,15.70
2023-01-10T16:50:33.373Z,15.80
2023-01-10T16:53:01.041Z,10.47
2023-01-10T16:55:34.995Z,14.10
2023-01-10T16:58:03.013Z,10.77
2023-01-10T17:00:31.087Z,16.00
2023-01-10T17:02:59.130Z,14.83
2023-01-10T17:05:27.089Z,14.07
2023-01-10T17:07:56.433Z,11.57
2023-01-10T17:10:24.217Z,12.07
2023-01-10T17:12:52.260Z,14.07
2023-01-10T17:15:20.304Z,11.53
2023-01-10T17:17:48.507Z,14.37
2023-01-10T17:20:17.181Z,15.30
2023-01-10T17:22:45.509Z,20.57
2023-01-10T17:25:16.053Z,13.50
2023-01-10T17:27:44.623Z,13.97
2023-01-10T17:30:13.921Z,14.63
2023-01-10T17:32:42.600Z,14.90
2023-01-10T17:35:11.262Z,17.13
2023-01-10T17:37:40.487Z,11.27
2023-01-10T17:40:09.756Z,14.07
2023-01-10T17:42:38.877Z,15.00
2023-01-10T17:45:07.354Z,15.60
2023-01-10T17:47:35.511Z,20.63
2023-01-10T17:50:03.199Z,22.63
2023-01-10T17:52:31.459Z,15.33
2023-01-10T17:54:59.667Z,11.90
2023-01-10T17:57:27.596Z,21.77
2023-01-10T17:59:56.720Z,14.97
2023-01-10T18:02:24.907Z,11.20
2023-01-10T18:04:52.705Z,16.17
2023-01-10T18:07:20.860Z,18.90
2023-01-10T18:09:48.532Z,17.27
2023-01-10T18:12:16.241Z,15.30
2023-01-10T18:14:44.158Z,16.60
2023-01-10T18:17:13.303Z,15.47
2023-01-10T18:19:41.035Z,19.07
2023-01-10T18:22:23.053Z,15.03
2023-01-10T18:24:52.347Z,16.00
2023-01-10T18:27:20.611Z,14.37
2023-01-10T18:29:48.419Z,20.83
2023-01-10T18:32:17.596Z,16.10
2023-01-10T18:34:47.041Z,15.87
2023-01-10T18:37:15.006Z,14.47
2023-01-10T18:39:43.593Z,18.13
2023-01-10T18:42:11.747Z,14.40
2023-01-10T18:44:39.875Z,18.93
2023-01-10T18:47:07.683Z,17.50
2023-01-10T18:49:36.942Z,13.53
2023-01-10T18:52:05.438Z,14.33
2023-01-10T18:54:33.388Z,11.13
2023-01-10T18:57:01.916Z,13.87
2023-01-10T18:59:29.781Z,9.33
2023-01-10T19:01:58.166Z,9.67
2023-01-10T19:04:26.299Z,10.97
2023-01-10T19:06:56.963Z,15.67
2023-01-10T19:09:24.782Z,13.93
2023-01-10T19:11:52.981Z,14.53
2023-01-10T19:14:21.035Z,16.23
2023-01-10T19:16:48.991Z,12.70
2023-01-10T19:19:16.979Z,12.87
2023-01-10T19:21:45.450Z,10.10
2023-01-10T19:24:21.766Z,8.93
2023-01-10T19:26:49.808Z,12.30
2023-01-10T19:29:18.007Z,18.73
2023-01-10T19:31:48.646Z,5.70
2023-01-10T19:34:16.742Z,11.90
2023-01-10T19:36:46.003Z,16.63
2023-01-10T19:39:18.548Z,9.60
2023-01-10T19:41:47.052Z,9.50
2023-01-10T19:44:16.385Z,11.50
2023-01-10T19:46:47.808Z,14.43
2023-01-10T19:49:17.692Z,9.33
2023-01-10T19:51:47.914Z,11.43
2023-01-10T19:54:15.932Z,11.40
2023-01-10T19:56:45.785Z,7.50
2023-01-10T19:59:14.895Z,10.13
2023-01-10T20:01:43.596Z,6.00
2023-01-10T20:04:11.707Z,8.90
2023-01-10T20:06:40.483Z,7.10
2023-01-10T20:09:08.760Z,7.00
2023-01-10T20:11:38.309Z,5.77
2023-01-10T20:14:07.880Z,6.83
2023-01-10T20:16:36.146Z,7.30
2023-01-10T20:19:06.610Z,5.10
2023-01-10T20:21:35.754Z,6.57
2023-01-10T20:24:19.773Z,8.13
2023-01-10T20:26:48.424Z,8.87
2023-01-10T20:29:17.930Z,13.93
2023-01-10T20:31:48.103Z,14.50
2023-01-10T20:34:16.165Z,8.87
2023-01-10T20:36:44.061Z,10.23
2023-01-10T20:39:12.052Z,8.93
2023-01-10T20:41:40.340Z,6.67
2023-01-10T20:44:08.281Z,10.00
2023-01-10T20:46:39.157Z,12.73
2023-01-10T20:49:07.189Z,6.97
2023-01-10T20:51:35.490Z,7.30
2023-01-10T20:54:03.964Z,5.30
2023-01-10T20:56:32.824Z,7.97
2023-01-10T20:59:00.640Z,7.00
2023-01-10T21:01:34.507Z,9.50
2023-01-10T21:04:04.607Z,9.27
2023-01-10T21:06:32.391Z,6.33
2023-01-10T21:09:00.473Z,6.40
2023-01-10T21:11:28.431Z,6.27
2023-01-10T21:13:56.135Z,7.73
2023-01-10T21:16:25.957Z,10.57
2023-01-10T21:18:53.938Z,5.97
2023-01-10T21:21:23.553Z,12.80
2023-01-10T21:23:53.985Z,6.27
2023-01-10T21:26:21.885Z,7.57
2023-01-10T21:28:49.793Z,4.13
2023-01-10T21:31:19.331Z,6.37
2023-01-10T21:33:48.065Z,6.07
2023-01-10T21:36:15.932Z,5.40
2023-01-10T21:38:44.977Z,8.17
2023-01-10T21:41:14.128Z,8.40
2023-01-10T21:43:44.371Z,7.50
2023-01-10T21:46:13.413Z,7.03
2023-01-10T21:48:41.117Z,6.73
2023-01-10T21:51:09.209Z,8.93
2023-01-10T21:53:37.189Z,2.83
2023-01-10T21:56:07.627Z,4.50
2023-01-10T21:58:35.382Z,3.30
2023-01-10T22:01:03.176Z,4.83
2023-01-10T22:03:31.600Z,2.50
2023-01-10T22:05:59.888Z,5.23
2023-01-10T22:08:27.743Z,3.90
2023-01-10T22:10:56.189Z,3.80
2023-01-10T22:13:26.713Z,2.70
2023-01-10T22:15:59.423Z,6.13
2023-01-10T22:18:27.454Z,2.80
2023-01-10T22:20:56.783Z,5.23
2023-01-10T22:23:24.964Z,3.17
2023-01-10T22:26:00.594Z,3.10
2023-01-10T22:28:30.060Z,2.97
2023-01-10T22:30:58.465Z,4.50
2023-01-10T22:33:28.590Z,5.43
2023-01-10T22:35:56.640Z,5.13
2023-01-10T22:38:24.625Z,2.23
2023-01-10T22:40:52.482Z,2.93
2023-01-10T22:43:20.368Z,4.27
2023-01-10T22:45:50.566Z,3.10
2023-01-10T22:48:18.428Z,4.00
2023-01-10T22:50:49.283Z,4.27
2023-01-10T22:53:17.259Z,3.07
2023-01-10T22:55:45.044Z,4.90
2023-01-10T22:58:12.704Z,2.50
2023-01-10T23:00:40.857Z,3.27
2023-01-10T23:03:09.885Z,3.50
2023-01-10T23:05:37.914Z,2.23
2023-01-10T23:08:06.023Z,5.23
2023-01-10T23:10:34.113Z,2.00
2023-01-10T23:13:02.064Z,2.70
2023-01-10T23:15:30.498Z,2.10
2023-01-10T23:17:58.163Z,4.73
2023-01-10T23:20:27.579Z,2.20
2023-01-10T23:22:55.267Z,7.93
2023-01-10T23:25:22.944Z,4.83
2023-01-10T23:27:50.814Z,2.40
2023-01-10T23:30:19.076Z,4.83
2023-01-10T23:32:46.748Z,2.10
2023-01-10T23:35:14.411Z,3.33
2023-01-10T23:37:43.419Z,1.87
2023-01-10T23:40:12.861Z,2.10
2023-01-10T23:42:40.782Z,2.23
2023-01-10T23:45:10.121Z,2.50
2023-01-10T23:47:37.786Z,3.47
2023-01-10T23:50:07.066Z,3.73
2023-01-10T23:52:35.029Z,3.10
2023-01-10T23:55:04.809Z,2.53
2023-01-10T23:57:32.625Z,2.37
